createdAt,value
2023-05-17T00:02:31.395Z,2.90
2023-05-17T00:05:47.522Z,3.20
2023-05-17T00:08:51.318Z,3.03
2023-05-17T00:12:21.372Z,3.00
2023-05-17T00:15:40.314Z,3.73
2023-05-17T00:18:56.432Z,2.90
2023-05-17T00:22:00.430Z,2.87
2023-05-17T00:25:31.618Z,2.80
2023-05-17T00:28:48.375Z,2.67
2023-05-17T00:32:07.591Z,2.90
2023-05-17T00:35:11.772Z,3.17
2023-05-17T00:38:33.483Z,3.47
2023-05-17T00:41:49.497Z,3.63
2023-05-17T00:45:19.400Z,3.40
2023-05-17T00:48:23.734Z,3.23
2023-05-17T00:51:54.566Z,3.15
2023-05-17T00:55:10.635Z,4.23
2023-05-17T00:58:41.441Z,2.50
2023-05-17T01:02:01.521Z,3.20
2023-05-17T01:05:30.801Z,2.80
2023-05-17T01:08:34.785Z,3.13
2023-05-17T01:12:04.565Z,3.10
2023-05-17T01:15:21.632Z,1.90
2023-05-17T01:18:54.746Z,2.70
2023-05-17T01:22:12.775Z,2.70
2023-05-17T01:25:57.640Z,2.75
2023-05-17T01:29:14.810Z,2.40
2023-05-17T01:32:44.644Z,2.57
2023-05-17T01:35:48.688Z,2.70
2023-05-17T01:39:04.623Z,2.20
2023-05-17T01:42:24.834Z,2.60
2023-05-17T01:45:56.829Z,2.50
2023-05-17T01:49:25.696Z,2.43
2023-05-17T01:52:55.922Z,2.63
2023-05-17T01:56:11.765Z,2.55
2023-05-17T01:59:48.701Z,2.53
2023-05-17T02:03:18.775Z,2.53
2023-05-17T02:06:43.721Z,2.43
2023-05-17T02:09:47.651Z,2.97
2023-05-17T02:13:06.699Z,2.57
2023-05-17T02:16:35.836Z,3.17
2023-05-17T02:19:55.810Z,1.90
2023-05-17T02:23:14.733Z,3.27
2023-05-17T02:26:18.864Z,2.40
2023-05-17T02:29:40.807Z,2.27
2023-05-17T02:33:12.872Z,1.80
2023-05-17T02:36:45.051Z,2.50
2023-05-17T02:39:48.905Z,3.60
2023-05-17T02:43:08.783Z,3.10
2023-05-17T02:46:12.834Z,2.73
2023-05-17T02:49:31.986Z,2.23
2023-05-17T02:53:02.067Z,2.55
2023-05-17T02:56:32.756Z,2.40
2023-05-17T02:59:48.819Z,2.30
2023-05-17T03:03:08.059Z,2.80
2023-05-17T03:06:23.922Z,2.07
2023-05-17T03:09:54.044Z,2.03
2023-05-17T03:13:10.882Z,2.10
2023-05-17T03:16:26.755Z,2.30
2023-05-17T03:19:43.091Z,2.37
2023-05-17T03:23:01.999Z,1.93
2023-05-17T03:26:33.970Z,2.43
2023-05-17T03:29:50.906Z,2.33
2023-05-17T03:33:19.051Z,2.27
2023-05-17T03:36:34.802Z,2.55
2023-05-17T03:39:50.947Z,2.20
2023-05-17T03:43:22.959Z,2.50
2023-05-17T03:46:38.900Z,2.37
2023-05-17T03:50:10.057Z,2.37
2023-05-17T03:53:26.085Z,2.15
2023-05-17T03:56:45.106Z,2.30
2023-05-17T04:00:14.160Z,2.35
2023-05-17T04:03:31.315Z,2.97
2023-05-17T04:06:59.150Z,2.53
2023-05-17T04:10:15.131Z,2.10
2023-05-17T04:13:19.176Z,2.10
2023-05-17T04:16:49.139Z,2.85
2023-05-17T04:20:05.219Z,2.60
2023-05-17T04:23:24.150Z,1.90
2023-05-17T04:26:40.216Z,1.83
2023-05-17T04:29:59.156Z,2.23
2023-05-17T04:33:28.381Z,2.50
2023-05-17T04:36:47.265Z,1.90
2023-05-17T04:40:03.351Z,2.35
2023-05-17T04:43:22.273Z,2.10
2023-05-17T04:46:40.273Z,1.90
2023-05-17T04:50:12.340Z,2.50
2023-05-17T04:53:28.193Z,2.07
2023-05-17T04:56:45.365Z,2.25
2023-05-17T05:00:13.307Z,2.80
2023-05-17T05:03:30.328Z,2.40
2023-05-17T05:07:02.346Z,1.90
2023-05-17T05:10:21.325Z,2.17
2023-05-17T05:13:49.312Z,2.07
2023-05-17T05:17:05.291Z,1.87
2023-05-17T05:20:33.426Z,1.90
2023-05-17T05:24:08.264Z,1.50
2023-05-17T05:27:24.420Z,1.97
2023-05-17T05:30:43.333Z,1.93
2023-05-17T05:33:47.467Z,2.90
2023-05-17T05:37:05.873Z,1.53
2023-05-17T05:40:40.524Z,1.90
2023-05-17T05:43:56.459Z,1.77
2023-05-17T05:47:27.526Z,1.47
2023-05-17T05:50:46.390Z,1.30
2023-05-17T05:54:03.587Z,1.20
2023-05-17T05:57:35.389Z,1.40
2023-05-17T06:01:05.987Z,1.60
2023-05-17T06:04:27.181Z,1.47
2023-05-17T06:07:26.477Z,1.60
2023-05-17T06:10:42.483Z,1.10
2023-05-17T06:13:59.432Z,1.55
2023-05-17T06:17:15.614Z,1.40
2023-05-17T06:20:19.598Z,1.27
2023-05-17T06:23:50.435Z,1.50
2023-05-17T06:26:57.525Z,1.70
2023-05-17T06:30:31.163Z,1.50
2023-05-17T06:33:34.798Z,1.05
2023-05-17T06:40:00.268Z,1.23
2023-05-17T06:43:14.586Z,1.13
2023-05-17T06:46:32.558Z,1.37
2023-05-17T06:50:06.572Z,1.20
2023-05-17T06:53:27.856Z,1.20
2023-05-17T06:56:31.644Z,1.30
2023-05-17T06:59:35.677Z,1.50
2023-05-17T07:03:13.676Z,1.30
2023-05-17T07:06:17.682Z,1.70
2023-05-17T07:09:48.632Z,1.60
2023-05-17T07:12:52.737Z,1.10
2023-05-17T07:16:11.773Z,2.17
2023-05-17T07:19:28.822Z,1.73
2023-05-17T07:22:44.681Z,1.50
2023-05-17T07:25:48.756Z,1.35
2023-05-17T07:29:30.661Z,1.90
2023-05-17T07:32:21.789Z,1.85
2023-05-17T07:35:56.719Z,1.75
2023-05-17T07:39:00.825Z,1.07
2023-05-17T07:42:19.684Z,1.20
2023-05-17T07:45:35.831Z,1.90
2023-05-17T07:48:51.962Z,1.57
2023-05-17T07:52:11.832Z,1.65
2023-05-17T07:55:31.756Z,1.80
2023-05-17T07:58:35.831Z,2.00
2023-05-17T08:01:54.783Z,1.83
2023-05-17T08:05:11.841Z,1.50
2023-05-17T08:08:31.771Z,2.10
2023-05-17T08:11:51.791Z,1.67
2023-05-17T08:14:55.842Z,1.93
2023-05-17T08:18:12.883Z,1.97
2023-05-17T08:21:16.807Z,2.07
2023-05-17T08:24:51.828Z,2.13
2023-05-17T08:27:55.938Z,1.80
2023-05-17T08:31:11.977Z,1.70
2023-05-17T08:34:15.944Z,1.75
2023-05-17T08:37:36.015Z,2.23
2023-05-17T08:40:55.988Z,1.90
2023-05-17T08:44:27.086Z,1.90
2023-05-17T08:47:43.972Z,1.75
2023-05-17T08:51:11.961Z,1.90
2023-05-17T08:54:16.975Z,2.47
2023-05-17T08:57:52.020Z,1.73
2023-05-17T09:01:07.965Z,2.10
2023-05-17T09:04:39.029Z,1.97
2023-05-17T09:07:46.103Z,1.87
2023-05-17T09:11:17.119Z,2.20
2023-05-17T09:14:37.087Z,1.80
2023-05-17T09:18:10.101Z,1.67
2023-05-17T09:21:31.103Z,2.40
2023-05-17T09:25:02.057Z,1.80
2023-05-17T09:28:22.116Z,1.43
2023-05-17T09:31:54.152Z,1.57
2023-05-17T09:35:11.215Z,2.10
2023-05-17T09:38:30.178Z,1.70
2023-05-17T09:41:46.197Z,1.93
2023-05-17T09:45:17.069Z,1.93
2023-05-17T09:48:41.201Z,2.10
2023-05-17T09:52:12.237Z,1.80
2023-05-17T09:55:16.304Z,2.43
2023-05-17T09:58:44.144Z,2.13
2023-05-17T10:02:00.281Z,2.07
2023-05-17T10:05:33.331Z,1.43
2023-05-17T10:08:49.297Z,1.90
2023-05-17T10:12:20.213Z,1.83
2023-05-17T10:15:36.188Z,1.90
2023-05-17T10:19:07.316Z,1.97
2023-05-17T10:22:27.321Z,2.33
2023-05-17T10:25:58.287Z,1.60
2023-05-17T10:29:15.314Z,1.90
2023-05-17T10:32:44.439Z,2.20
2023-05-17T10:36:03.386Z,2.57
2023-05-17T10:39:38.287Z,2.20
2023-05-17T10:42:54.362Z,1.70
2023-05-17T10:46:25.357Z,1.60
2023-05-17T10:49:29.430Z,1.63
2023-05-17T10:52:48.373Z,2.00
2023-05-17T10:56:06.374Z,1.63
2023-05-17T10:59:46.306Z,1.33
2023-05-17T11:03:05.396Z,1.27
2023-05-17T11:06:42.401Z,2.40
2023-05-17T11:09:58.405Z,1.90
2023-05-17T11:13:30.419Z,1.57
2023-05-17T11:16:47.546Z,2.07
2023-05-17T11:20:27.933Z,1.50
2023-05-17T11:23:43.614Z,2.43
2023-05-17T11:27:11.535Z,1.47
2023-05-17T11:30:35.452Z,1.93
2023-05-17T11:34:06.505Z,1.67
2023-05-17T11:37:22.426Z,2.10
2023-05-17T11:40:53.429Z,1.50
2023-05-17T11:44:14.563Z,1.43
2023-05-17T11:47:49.706Z,2.13
2023-05-17T11:51:05.534Z,2.10
2023-05-17T11:54:33.539Z,1.73
2023-05-17T11:57:49.425Z,1.80
2023-05-17T12:01:19.563Z,1.37
2023-05-17T12:04:51.873Z,1.40
2023-05-17T12:08:08.696Z,1.57
2023-05-17T12:11:52.806Z,2.10
2023-05-17T12:15:16.446Z,1.73
2023-05-17T12:18:51.192Z,1.73
2023-05-17T12:22:18.910Z,2.00
2023-05-17T12:25:51.631Z,1.43
2023-05-17T12:29:08.185Z,1.70
2023-05-17T12:32:36.698Z,2.00
2023-05-17T12:35:40.611Z,1.77
2023-05-17T12:39:15.774Z,1.45
2023-05-17T12:42:31.602Z,1.40
2023-05-17T12:46:00.412Z,1.70
2023-05-17T12:49:15.811Z,1.33
2023-05-17T12:52:34.768Z,1.53
2023-05-17T12:55:51.849Z,1.40
2023-05-17T12:59:31.805Z,1.50
2023-05-17T13:02:47.899Z,1.50
2023-05-17T13:06:24.781Z,1.60
2023-05-17T13:09:28.812Z,1.67
2023-05-17T13:13:00.986Z,1.53
2023-05-17T13:16:16.846Z,1.27
2023-05-17T13:19:36.163Z,1.70
2023-05-17T13:22:51.833Z,1.50
2023-05-17T13:26:08.610Z,1.67
2023-05-17T13:29:38.135Z,1.83
2023-05-17T13:32:57.095Z,1.27
2023-05-17T13:36:00.741Z,2.20
2023-05-17T13:39:21.687Z,1.30
2023-05-17T13:42:35.985Z,1.57
2023-05-17T13:46:11.023Z,1.75
2023-05-17T13:49:15.129Z,1.67
2023-05-17T13:52:30.902Z,1.97
2023-05-17T13:55:34.920Z,1.50
2023-05-17T13:58:51.001Z,2.25
2023-05-17T14:02:08.781Z,1.87
2023-05-17T14:05:26.024Z,1.73
2023-05-17T14:08:29.899Z,1.45
2023-05-17T14:12:01.365Z,1.80
2023-05-17T14:15:04.910Z,1.60
2023-05-17T14:18:40.107Z,1.80
2023-05-17T14:21:43.950Z,1.47
2023-05-17T14:25:00.949Z,1.90
2023-05-17T14:28:05.008Z,2.70
2023-05-17T14:31:36.092Z,2.00
2023-05-17T14:34:58.994Z,1.63
2023-05-17T14:38:18.123Z,1.90
2023-05-17T14:41:22.071Z,1.57
2023-05-17T14:44:39.002Z,1.90
2023-05-17T14:47:55.089Z,2.00
2023-05-17T14:51:27.183Z,1.70
2023-05-17T14:54:30.975Z,1.57
2023-05-17T14:57:59.246Z,1.93
2023-05-17T15:01:05.483Z,1.55
2023-05-17T15:04:22.193Z,2.05
2023-05-17T15:07:39.167Z,2.00
2023-05-17T15:10:58.173Z,1.73
2023-05-17T15:14:02.242Z,1.77
2023-05-17T15:17:21.243Z,1.90
2023-05-17T15:20:25.199Z,1.70
2023-05-17T15:23:58.246Z,2.30
2023-05-17T15:27:02.185Z,2.10
2023-05-17T15:30:19.245Z,1.97
2023-05-17T15:33:35.387Z,2.07
2023-05-17T15:36:54.279Z,1.47
2023-05-17T15:40:11.349Z,2.00
2023-05-17T15:43:28.310Z,1.87
2023-05-17T15:46:32.256Z,1.70
2023-05-17T15:49:52.221Z,1.50
2023-05-17T15:52:56.028Z,1.70
2023-05-17T15:56:26.333Z,1.60
2023-05-17T15:59:31.254Z,1.60
2023-05-17T16:02:50.384Z,1.73
2023-05-17T16:06:06.467Z,1.50
2023-05-17T16:09:10.360Z,2.33
2023-05-17T16:12:42.520Z,1.63
2023-05-17T16:15:58.346Z,1.67
2023-05-17T16:19:14.544Z,1.53
2023-05-17T16:22:18.325Z,1.90
2023-05-17T16:25:46.385Z,1.37
2023-05-17T16:28:55.634Z,2.05
2023-05-17T16:32:14.358Z,1.80
2023-05-17T16:35:32.600Z,1.37
2023-05-17T16:38:51.417Z,1.53
2023-05-17T16:41:55.528Z,1.40
2023-05-17T16:45:24.555Z,1.40
2023-05-17T16:48:40.409Z,1.33
2023-05-17T16:51:59.608Z,1.23
2023-05-17T16:55:03.620Z,1.67
2023-05-17T16:58:19.524Z,1.20
2023-05-17T17:01:36.555Z,1.47
2023-05-17T17:04:52.474Z,1.20
2023-05-17T17:07:56.535Z,1.50
2023-05-17T17:11:03.757Z,1.33
2023-05-17T17:14:19.566Z,1.67
2023-05-17T17:17:48.696Z,1.30
2023-05-17T17:20:52.530Z,1.70
2023-05-17T17:24:08.601Z,0.93
2023-05-17T17:27:12.475Z,1.33
2023-05-17T17:30:32.122Z,1.30
2023-05-17T17:33:48.638Z,1.30
2023-05-17T17:37:19.677Z,1.20
2023-05-17T17:40:38.675Z,1.30
2023-05-17T17:44:09.651Z,1.60
2023-05-17T17:47:13.698Z,1.33
2023-05-17T17:50:43.585Z,1.63
2023-05-17T17:53:59.640Z,1.37
2023-05-17T17:57:15.720Z,1.30
2023-05-17T18:00:31.895Z,1.50
2023-05-17T18:04:03.697Z,4.80
2023-05-17T18:07:20.609Z,3.93
2023-05-17T18:10:39.652Z,2.43
2023-05-17T18:13:51.699Z,1.67
2023-05-17T18:17:07.744Z,1.50
2023-05-17T18:20:12.715Z,2.53
2023-05-17T18:23:44.775Z,1.60
2023-05-17T18:26:48.664Z,1.50
2023-05-17T18:30:04.740Z,1.40
2023-05-17T18:33:08.882Z,2.23
2023-05-17T18:36:27.789Z,1.90
2023-05-17T18:39:47.693Z,1.90
2023-05-17T18:43:06.977Z,2.17
2023-05-17T18:46:10.766Z,1.27
2023-05-17T18:49:38.876Z,1.93
2023-05-17T18:52:45.880Z,1.40
2023-05-17T18:56:17.919Z,1.83
2023-05-17T18:59:21.800Z,1.93
2023-05-17T19:02:37.956Z,1.47
2023-05-17T19:05:41.820Z,1.80
2023-05-17T19:09:00.892Z,1.67
2023-05-17T19:12:20.870Z,2.77
2023-05-17T19:15:39.833Z,1.70
2023-05-17T19:18:55.938Z,1.60
2023-05-17T19:22:11.917Z,1.47
2023-05-17T19:25:16.377Z,2.03
2023-05-17T19:28:50.985Z,1.77
2023-05-17T19:31:55.004Z,1.50
2023-05-17T19:35:11.045Z,1.65
2023-05-17T19:38:14.977Z,1.75
2023-05-17T19:41:44.327Z,2.00
2023-05-17T19:45:03.143Z,1.60
2023-05-17T19:48:22.963Z,2.40
2023-05-17T19:51:39.066Z,2.35
2023-05-17T19:54:56.233Z,1.50
2023-05-17T19:57:59.995Z,1.90
2023-05-17T20:01:35.067Z,1.47
2023-05-17T20:04:55.110Z,1.63
2023-05-17T20:08:11.054Z,2.30
2023-05-17T20:11:42.110Z,2.87
2023-05-17T20:14:46.243Z,1.87
2023-05-17T20:18:18.227Z,2.50
2023-05-17T20:21:34.077Z,1.90
2023-05-17T20:25:05.171Z,1.87
2023-05-17T20:28:09.084Z,2.75
2023-05-17T20:31:24.980Z,1.75
2023-05-17T20:34:47.096Z,1.50
2023-05-17T20:38:04.200Z,1.70
2023-05-17T20:41:23.501Z,2.30
2023-05-17T20:44:46.078Z,1.70
2023-05-17T20:48:03.370Z,1.70
2023-05-17T20:51:38.247Z,2.63
2023-05-17T20:54:42.123Z,2.93
2023-05-17T20:58:00.405Z,2.00
2023-05-17T21:01:16.421Z,1.70
2023-05-17T21:04:37.209Z,2.15
2023-05-17T21:07:55.417Z,2.30
2023-05-17T21:11:26.494Z,2.00
2023-05-17T21:14:30.329Z,2.33
2023-05-17T21:17:47.265Z,1.80
2023-05-17T21:21:03.365Z,2.63
2023-05-17T21:24:36.423Z,3.10
2023-05-17T21:27:40.374Z,1.35
2023-05-17T21:30:59.568Z,2.20
2023-05-17T21:34:03.444Z,1.90
2023-05-17T21:37:31.399Z,1.90
2023-05-17T21:40:48.460Z,1.70
2023-05-17T21:44:05.302Z,2.00
2023-05-17T21:47:09.452Z,1.60
2023-05-17T21:50:37.406Z,2.15
2023-05-17T21:53:40.704Z,2.23
2023-05-17T21:57:12.467Z,2.00
2023-05-17T22:00:29.578Z,2.40
2023-05-17T22:03:46.486Z,2.60
2023-05-17T22:06:50.425Z,1.30
2023-05-17T22:10:10.018Z,1.87
2023-05-17T22:13:26.495Z,1.80
2023-05-17T22:16:45.489Z,1.77
2023-05-17T22:20:13.453Z,2.60
2023-05-17T22:23:29.448Z,2.00
2023-05-17T22:26:33.430Z,1.65
2023-05-17T22:30:06.522Z,1.97
2023-05-17T22:33:10.583Z,2.43
2023-05-17T22:36:29.572Z,1.47
2023-05-17T22:39:33.506Z,3.70
2023-05-17T22:43:04.486Z,2.80
2023-05-17T22:46:21.645Z,2.00
2023-05-17T22:49:40.579Z,1.60
2023-05-17T22:52:44.537Z,1.30
2023-05-17T22:56:03.545Z,1.60
2023-05-17T22:59:07.563Z,2.07
2023-05-17T23:02:42.588Z,1.47
2023-05-17T23:05:49.545Z,2.45
2023-05-17T23:09:08.683Z,1.65
2023-05-17T23:12:24.684Z,2.70
2023-05-17T23:15:43.595Z,3.05
2023-05-17T23:19:00.647Z,1.73
2023-05-17T23:22:28.612Z,3.03
2023-05-17T23:25:32.927Z,4.90
2023-05-17T23:28:54.637Z,4.80
2023-05-17T23:31:58.790Z,5.20
2023-05-17T23:35:33.697Z,2.80
2023-05-17T23:38:37.694Z,4.10
2023-05-17T23:42:06.872Z,4.40
2023-05-17T23:45:10.696Z,3.77
2023-05-17T23:48:26.812Z,5.57
2023-05-17T23:51:43.872Z,2.30
2023-05-17T23:55:02.686Z,20.90
2023-05-17T23:58:06.811Z,14.10
